Terminal Aerodrome Forecast
Issued by NWS Charleston, WV

Current Version | Previous Version | Graphics & Text | Print | Product List | Glossary On
Versions: 1 2 3 4 5 6 7 8 9 10 11 12 13 14 15 16 17 18 19 20 21 22
000
FTUS41 KRLX 301120
TAFEKN
TAF
KEKN 301120Z 3012/3112 00000KT 3SM BR SCT040
     FM301400 VRB03KT P6SM SCT040
     FM302200 VRB03KT P6SM VCTS SCT060CB
     FM310600 00000KT 2SM BR BKN100=

USA.gov is the U.S. government's official web portal to all federal, state and local government web resources and services.